Time;durP1;ratioP1;P1;durP2;ratioP2;P2;SDS_P1;SDS_P2;PMS_P1;PMS_P2;Temp;Humidity;BMP_temperature;BMP_pressure;BME280_temperature;BME280_humidity;BME280_pressure;Samples;Min_cycle;Max_cycle;Signal;HPM_P1;HPM_P2
2020/12/23 00:01:56;;;;;;;;;;;;;;;4.95;100.00;100797.28;5031291;28;20142;-68
2020/12/23 00:04:22;;;;;;;;;;;;;;;4.91;100.00;100796.56;5031010;28;20351;-68
2020/12/23 00:06:48;;;;;;;;;;;;;;;4.86;100.00;100799.53;5030877;28;19925;-68
2020/12/23 00:09:13;;;;;;;;;;;;;;;4.82;100.00;100797.97;5030671;28;19933;-68
2020/12/23 00:11:39;;;;;;;;;;;;;;;4.78;100.00;100803.59;5031046;28;19925;-69
2020/12/23 00:14:05;;;;;;;;;;;;;;;4.74;100.00;100793.97;5030980;28;20406;-68
2020/12/23 00:16:32;;;;;;;;;;;;;;;4.74;100.00;100786.75;5030937;28;19933;-68
2020/12/23 00:18:57;;;;;;;;;;;;;;;4.75;100.00;100801.09;5030907;28;20028;-69
2020/12/23 00:21:23;;;;;;;;;;;;;;;4.76;100.00;100790.25;5031133;28;19975;-69
2020/12/23 00:23:49;;;;;;;;;;;;;;;4.77;100.00;100800.06;5038611;28;19924;-69
2020/12/23 00:26:15;;;;;;;;;;;;;;;4.81;100.00;100804.31;5050471;28;20401;-69
2020/12/23 00:28:41;;;;;;;;;;;;;;;4.85;100.00;100805.88;5053322;28;19925;-68
2020/12/23 00:31:07;;;;;;;;;;;;;;;4.90;100.00;100796.66;5054535;28;19924;-69
2020/12/23 00:33:34;;;;;;;;;;;;;;;4.92;100.00;100797.44;5054527;28;20406;-68
2020/12/23 00:35:59;;;;;;;;;;;;;;;4.91;100.00;100801.09;5054368;28;20016;-68
2020/12/23 00:38:26;;;;;;;;;;;;;;;4.91;100.00;100796.56;5054441;28;19928;-69
2020/12/23 00:40:51;;;;;;;;;;;;;;;4.89;100.00;100790.44;5053374;28;20455;-68
2020/12/23 00:43:17;;;;;;;;;;;;;;;4.88;100.00;100795.88;5054129;28;20395;-68
2020/12/23 00:45:43;;;;;;;;;;;;;;;4.88;100.00;100796.75;5054189;28;19925;-68
2020/12/23 00:48:09;;;;;;;;;;;;;;;4.85;100.00;100791.53;5036200;28;19931;-68
2020/12/23 00:50:36;;;;;;;;;;;;;;;4.85;100.00;100784.34;5053111;28;19925;-68
2020/12/23 00:53:02;;;;;;;;;;;;;;;4.85;100.00;100799.59;5054260;28;19928;-68
2020/12/23 00:55:28;;;;;;;;;;;;;;;4.86;100.00;100790.59;5054136;28;19928;-69
2020/12/23 00:57:54;;;;;;;;;;;;;;;4.88;100.00;100798.56;5053654;28;20010;-68
2020/12/23 01:00:20;;;;;;;;;;;;;;;4.90;100.00;100796.66;5053976;28;19925;-69
2020/12/23 01:02:45;;;;;;;;;;;;;;;4.91;100.00;100798.41;5053999;28;19951;-68
2020/12/23 01:05:11;;;;;;;;;;;;;;;4.93;100.00;100804.56;5054000;28;19931;-69
2020/12/23 01:07:38;;;;;;;;;;;;;;;4.93;100.00;100797.38;5053995;28;19931;-68
2020/12/23 01:10:04;;;;;;;;;;;;;;;4.98;100.00;100808.75;5053982;28;20001;-69
2020/12/23 01:12:29;;;;;;;;;;;;;;;5.00;100.00;100809.50;5053955;28;19925;-69
2020/12/23 01:14:55;;;;;;;;;;;;;;;5.03;100.00;100812.03;5053999;28;19936;-68
2020/12/23 01:17:21;;;;;;;;;;;;;;;5.07;100.00;100812.72;5052105;28;19932;-68
2020/12/23 01:19:47;;;;;;;;;;;;;;;5.10;100.00;100793.69;5053844;28;19971;-69
2020/12/23 01:22:12;;;;;;;;;;;;;;;5.09;100.00;100797.38;5053713;28;19928;-68
2020/12/23 01:24:39;;;;;;;;;;;;;;;5.10;100.00;100804.47;5053755;28;19939;-68
2020/12/23 01:27:05;;;;;;;;;;;;;;;5.10;100.00;100803.59;5053406;28;19978;-69
2020/12/23 01:29:30;;;;;;;;;;;;;;;5.05;100.00;100803.88;5053993;28;20386;-68
2020/12/23 01:31:56;;;;;;;;;;;;;;;5.05;100.00;100798.50;5053806;28;19940;-69
2020/12/23 01:34:22;;;;;;;;;;;;;;;5.05;100.00;100803.88;5052609;28;19925;-69
2020/12/23 01:36:49;;;;;;;;;;;;;;;5.03;100.00;100803.94;5052970;28;20275;-68
2020/12/23 01:39:14;;;;;;;;;;;;;;;5.02;100.00;100796.84;5051177;28;19955;-68
2020/12/23 01:41:41;;;;;;;;;;;;;;;5.03;100.00;100795.03;5052283;28;19924;-68
2020/12/23 01:44:07;;;;;;;;;;;;;;;5.04;100.00;100796.75;5053390;28;20024;-68
2020/12/23 01:46:33;;;;;;;;;;;;;;;5.04;100.00;100804.84;5053077;28;19924;-68
2020/12/23 01:49:01;;;;;;;;;;;;;;;5.05;100.00;100790.44;5053207;28;19925;-68
2020/12/23 01:51:27;;;;;;;;;;;;;;;5.07;100.00;100793.88;5053289;28;19935;-68
2020/12/23 01:53:53;;;;;;;;;;;;;;;5.07;100.00;100799.28;5053335;28;20020;-69
2020/12/23 01:56:19;;;;;;;;;;;;;;;5.09;100.00;100805.44;5051259;28;19932;-68
2020/12/23 01:58:46;;;;;;;;;;;;;;;5.08;100.00;100814.47;5053088;28;19978;-68
2020/12/23 02:01:14;;;;;;;;;;;;;;;5.08;100.00;100822.53;5053112;28;20035;-68
2020/12/23 02:03:39;;;;;;;;;;;;;;;5.09;100.00;100824.28;5052997;28;19932;-68
2020/12/23 02:06:05;;;;;;;;;;;;;;;5.11;100.00;100819.66;5052725;28;19928;-69
2020/12/23 02:08:31;;;;;;;;;;;;;;;5.13;100.00;100812.38;5052856;28;19925;-68
2020/12/23 02:10:57;;;;;;;;;;;;;;;5.15;100.00;100810.47;5052677;28;19925;-69
2020/12/23 02:13:35;;;;;;;;;;;;;;;5.17;100.00;100810.38;5052731;28;19956;-68
2020/12/23 02:16:02;;;;;;;;;;;;;;;5.18;100.00;100817.50;5052576;28;19932;-68
2020/12/23 02:18:28;;;;;;;;;;;;;;;5.18;100.00;100818.38;5052616;28;20019;-69
2020/12/23 02:20:54;;;;;;;;;;;;;;;5.21;100.00;100806.53;5052831;28;20374;-69
2020/12/23 02:23:20;;;;;;;;;;;;;;;5.22;100.00;100815.50;5049510;28;19925;-69
2020/12/23 02:25:46;;;;;;;;;;;;;;;5.19;100.00;100798.56;5052425;28;20028;-68
2020/12/23 02:28:12;;;;;;;;;;;;;;;5.22;100.00;100802.91;5050993;28;19925;-69
2020/12/23 02:30:38;;;;;;;;;;;;;;;5.22;100.00;100804.72;5052426;28;20394;-69
2020/12/23 02:33:03;;;;;;;;;;;;;;;5.23;100.00;100801.09;5052395;28;19925;-68
2020/12/23 02:35:29;;;;;;;;;;;;;;;5.22;100.00;100797.50;5052357;28;19932;-68
2020/12/23 02:37:55;;;;;;;;;;;;;;;5.22;100.00;100807.44;5052142;28;20352;-68
2020/12/23 02:40:21;;;;;;;;;;;;;;;5.20;100.00;100811.06;5052313;28;19932;-68
2020/12/23 02:42:47;;;;;;;;;;;;;;;5.20;100.00;100799.44;5052336;28;19929;-68
2020/12/23 02:45:13;;;;;;;;;;;;;;;5.19;100.00;100803.09;5052263;28;19986;-68
2020/12/23 02:47:39;;;;;;;;;;;;;;;5.18;100.00;100795.97;5051740;28;20710;-68
2020/12/23 02:50:05;;;;;;;;;;;;;;;5.18;100.00;100798.66;5052001;28;19925;-68
2020/12/23 02:52:31;;;;;;;;;;;;;;;5.18;100.00;100796.84;5052149;28;19947;-69
2020/12/23 02:54:56;;;;;;;;;;;;;;;5.18;100.00;100801.34;5052075;28;19932;-69
2020/12/23 02:57:23;;;;;;;;;;;;;;;5.20;100.00;100799.44;5051716;28;19925;-68
2020/12/23 02:59:49;;;;;;;;;;;;;;;5.18;100.00;100804.91;5052030;28;20054;-68
2020/12/23 03:02:15;;;;;;;;;;;;;;;5.19;100.00;100808.47;5052041;28;19929;-68
2020/12/23 03:04:40;;;;;;;;;;;;;;;5.19;100.00;100795.00;5051663;28;19924;-69
2020/12/23 03:07:06;;;;;;;;;;;;;;;5.21;100.00;100790.38;5051548;28;19929;-68
2020/12/23 03:09:32;;;;;;;;;;;;;;;5.20;100.00;100788.69;5051933;28;19925;-68
2020/12/23 03:11:58;;;;;;;;;;;;;;;5.23;100.00;100793.03;5051618;28;19925;-68
2020/12/23 03:14:24;;;;;;;;;;;;;;;5.21;100.00;100798.47;5051692;28;19924;-68
2020/12/23 03:16:50;;;;;;;;;;;;;;;5.20;100.00;100794.91;5051433;28;20012;-68
2020/12/23 03:19:16;;;;;;;;;;;;;;;5.17;100.00;100792.41;5051617;28;19990;-69
2020/12/23 03:21:41;;;;;;;;;;;;;;;5.18;100.00;100798.66;5051247;28;20405;-69
2020/12/23 03:24:07;;;;;;;;;;;;;;;5.18;100.00;100788.78;5051542;28;19929;-69
2020/12/23 03:26:33;;;;;;;;;;;;;;;5.17;100.00;100791.53;5051478;28;19935;-68
2020/12/23 03:28:59;;;;;;;;;;;;;;;5.17;100.00;100794.22;5051621;28;19932;-68
2020/12/23 03:31:28;;;;;;;;;;;;;;;5.17;100.00;100800.50;5051539;28;19929;-68
2020/12/23 03:33:54;;;;;;;;;;;;;;;5.16;100.00;100804.13;5051494;28;20343;-68
2020/12/23 03:36:20;;;;;;;;;;;;;;;5.15;100.00;100801.53;5051423;28;19932;-68
2020/12/23 03:38:45;;;;;;;;;;;;;;;5.13;100.00;100804.31;5051342;28;19929;-69
2020/12/23 03:41:11;;;;;;;;;;;;;;;5.09;100.00;100807.25;5051195;28;19924;-68
2020/12/23 03:43:37;;;;;;;;;;;;;;;5.07;100.00;100815.41;5051306;28;20386;-69
2020/12/23 03:46:03;;;;;;;;;;;;;;;5.02;100.00;100814.81;5051016;28;19929;-68
2020/12/23 03:48:29;;;;;;;;;;;;;;;5.03;100.00;100825.47;5051357;28;19925;-68
2020/12/23 03:50:55;;;;;;;;;;;;;;;5.01;100.00;100821.13;5051206;28;19986;-68
2020/12/23 03:53:21;;;;;;;;;;;;;;;5.00;100.00;100819.41;5051368;28;19980;-68
2020/12/23 03:55:47;;;;;;;;;;;;;;;5.00;100.00;100819.41;5050923;28;19929;-68
2020/12/23 03:58:12;;;;;;;;;;;;;;;5.00;100.00;100814.91;5050932;28;19945;-68
2020/12/23 04:00:38;;;;;;;;;;;;;;;5.00;100.00;100819.41;5051222;28;20027;-68
2020/12/23 04:03:04;;;;;;;;;;;;;;;5.02;100.00;100818.38;5052845;28;19931;-68
2020/12/23 04:05:31;;;;;;;;;;;;;;;4.98;100.00;100808.75;5055280;28;19925;-68
2020/12/23 04:07:56;;;;;;;;;;;;;;;4.98;100.00;100807.88;5053936;28;20027;-68
2020/12/23 04:10:22;;;;;;;;;;;;;;;4.95;100.00;100811.59;5055148;28;20298;-69
2020/12/23 04:12:48;;;;;;;;;;;;;;;4.96;100.00;100812.47;5055129;28;19935;-68
2020/12/23 04:15:14;;;;;;;;;;;;;;;4.93;100.00;100808.13;5053940;28;19928;-68
2020/12/23 04:17:39;;;;;;;;;;;;;;;4.96;100.00;100820.56;5052401;28;19925;-68
2020/12/23 04:20:06;;;;;;;;;;;;;;;4.96;100.00;100826.78;5055154;28;19998;-68
2020/12/23 04:22:33;;;;;;;;;;;;;;;4.98;100.00;100821.31;5054976;28;20015;-68
2020/12/23 04:24:59;;;;;;;;;;;;;;;4.98;100.00;100822.19;5054929;28;20019;-68
2020/12/23 04:27:25;;;;;;;;;;;;;;;4.99;100.00;100813.16;5054568;28;20393;-68
2020/12/23 04:29:51;;;;;;;;;;;;;;;5.00;100.00;100819.41;5054820;28;19932;-69
2020/12/23 04:32:17;;;;;;;;;;;;;;;5.02;100.00;100818.38;5054530;28;20227;-68
2020/12/23 04:34:43;;;;;;;;;;;;;;;5.02;100.00;100813.00;5054761;28;19925;-69
2020/12/23 04:37:08;;;;;;;;;;;;;;;5.04;100.00;100818.28;5054444;28;19925;-68
2020/12/23 04:39:35;;;;;;;;;;;;;;;5.06;100.00;100812.81;5054693;28;19971;-68
2020/12/23 04:42:01;;;;;;;;;;;;;;;5.05;100.00;100816.44;5053269;28;20309;-68
2020/12/23 04:44:27;;;;;;;;;;;;;;;4.98;100.00;100826.69;5054518;28;19925;-69
2020/12/23 04:46:53;;;;;;;;;;;;;;;4.99;100.00;100828.44;5054210;28;19925;-68
2020/12/23 04:49:21;;;;;;;;;;;;;;;5.00;100.00;100828.34;5054067;28;20027;-68
2020/12/23 04:51:51;;;;;;;;;;;;;;;4.98;100.00;100826.69;5054352;28;19935;-68
2020/12/23 04:54:17;;;;;;;;;;;;;;;4.98;100.00;100824.00;5053175;28;19932;-68
2020/12/23 04:56:44;;;;;;;;;;;;;;;4.94;100.00;100814.38;5054040;28;20027;-68
2020/12/23 04:59:09;;;;;;;;;;;;;;;4.95;100.00;100826.88;5054163;28;20011;-68
2020/12/23 05:01:35;;;;;;;;;;;;;;;4.94;100.00;100831.38;5054246;28;19969;-68
2020/12/23 05:04:01;;;;;;;;;;;;;;;4.94;100.00;100826.00;5052898;28;19925;-68
2020/12/23 05:06:27;;;;;;;;;;;;;;;4.90;100.00;100831.63;5053898;28;19925;-68
2020/12/23 05:08:52;;;;;;;;;;;;;;;4.89;100.00;100825.41;5053901;28;19947;-68
2020/12/23 05:11:18;;;;;;;;;;;;;;;4.90;100.00;100829.81;5054082;28;19929;-68
2020/12/23 05:13:45;;;;;;;;;;;;;;;4.89;100.00;100827.22;5053944;28;20381;-68
2020/12/23 05:16:12;;;;;;;;;;;;;;;4.90;100.00;100828.94;5053694;28;20401;-68
2020/12/23 05:18:38;;;;;;;;;;;;;;;4.88;100.00;100834.41;5053740;28;19925;-68
2020/12/23 05:21:14;;;;;;;;;;;;;;;4.83;100.00;100834.66;5053557;28;19925;-68
2020/12/23 05:23:40;;;;;;;;;;;;;;;4.85;100.00;100837.25;5053840;28;19925;-68
2020/12/23 05:26:06;;;;;;;;;;;;;;;4.85;100.00;100837.25;5053385;28;19947;-68
2020/12/23 05:28:32;;;;;;;;;;;;;;;4.85;100.00;100838.16;5053650;28;20031;-68
2020/12/23 05:31:01;;;;;;;;;;;;;;;4.88;100.00;100838.91;5053595;28;20023;-69
2020/12/23 05:33:26;;;;;;;;;;;;;;;4.87;100.00;100840.75;5053626;28;19929;-68
2020/12/23 05:35:54;;;;;;;;;;;;;;;4.89;100.00;100837.97;5053339;28;20039;-69
2020/12/23 05:38:20;;;;;;;;;;;;;;;4.89;100.00;100835.28;5053439;28;20011;-69
2020/12/23 05:40:46;;;;;;;;;;;;;;;4.91;100.00;100812.72;5053198;28;20310;-70
2020/12/23 05:43:12;;;;;;;;;;;;;;;4.97;100.00;100820.47;5053142;28;19925;-69
2020/12/23 05:45:41;;;;;;;;;;;;;;;4.95;100.00;100819.66;5047859;28;20015;-70
2020/12/23 05:48:11;;;;;;;;;;;;;;;4.90;100.00;100826.25;5035897;28;20015;-69
2020/12/23 05:50:37;;;;;;;;;;;;;;;4.92;100.00;100825.22;5044631;28;20342;-69
2020/12/23 05:53:09;;;;;;;;;;;;;;;4.91;100.00;100819.94;5052913;28;20020;-69
2020/12/23 05:55:35;;;;;;;;;;;;;;;4.87;100.00;100824.59;5052754;28;19931;-69
2020/12/23 05:58:01;;;;;;;;;;;;;;;4.90;100.00;100819.03;5052654;28;19929;-69
2020/12/23 06:00:28;;;;;;;;;;;;;;;4.91;100.00;100818.09;5052772;28;19924;-69
2020/12/23 06:03:09;;;;;;;;;;;;;;;4.90;100.00;100826.25;5052993;28;20458;-69
2020/12/23 06:05:42;;;;;;;;;;;;;;;4.88;100.00;100833.53;5052480;28;19925;-69
2020/12/23 06:08:09;;;;;;;;;;;;;;;4.83;100.00;100834.66;5052823;28;19931;-69
2020/12/23 06:10:35;;;;;;;;;;;;;;;4.82;100.00;100827.56;5052596;28;20423;-70
2020/12/23 06:13:09;;;;;;;;;;;;;;;4.84;100.00;100827.47;5051993;28;19924;-69
2020/12/23 06:15:39;;;;;;;;;;;;;;;4.88;100.00;100809.31;5050446;28;20351;-69
2020/12/23 06:18:10;;;;;;;;;;;;;;;4.93;100.00;100809.94;5052671;28;20075;-69
2020/12/23 06:20:36;;;;;;;;;;;;;;;4.94;100.00;100809.00;5052493;28;19971;-69
2020/12/23 06:23:03;;;;;;;;;;;;;;;4.96;100.00;100807.09;5051372;28;20024;-69
2020/12/23 06:25:31;;;;;;;;;;;;;;;4.94;100.00;100809.00;5051268;28;20400;-69
2020/12/23 06:28:00;;;;;;;;;;;;;;;4.93;100.00;100807.25;5052288;28;19960;-69
2020/12/23 06:30:27;;;;;;;;;;;;;;;4.94;100.00;100819.75;5052173;28;20047;-69
2020/12/23 06:32:58;;;;;;;;;;;;;;;4.93;100.00;100812.63;5052347;28;20004;-69
2020/12/23 06:35:24;;;;;;;;;;;;;;;4.92;100.00;100809.09;5052164;28;19925;-69
2020/12/23 06:37:51;;;;;;;;;;;;;;;4.94;100.00;100820.59;5051586;28;19932;-69
2020/12/23 06:40:18;;;;;;;;;;;;;;;4.98;100.00;100811.44;5026656;28;19933;-68
2020/12/23 06:42:48;;;;;;;;;;;;;;;4.98;100.00;100815.94;5039556;28;19925;-69
2020/12/23 06:45:14;;;;;;;;;;;;;;;4.98;100.00;100821.31;5042077;28;20390;-68
2020/12/23 06:47:40;;;;;;;;;;;;;;;4.96;100.00;100818.72;5038771;28;19925;-68
2020/12/23 06:50:14;;;;;;;;;;;;;;;4.94;100.00;100815.22;5033641;28;20337;-68
2020/12/23 06:52:41;;;;;;;;;;;;;;;4.90;100.00;100816.34;5031325;28;19979;-68
2020/12/23 06:55:08;;;;;;;;;;;;;;;4.84;100.00;100822.97;5038062;28;20044;-68
2020/12/23 06:57:49;;;;;;;;;;;;;;;4.78;100.00;100809.84;5051584;28;19964;-67
2020/12/23 07:00:15;;;;;;;;;;;;;;;4.73;100.00;100820.00;5051686;28;19929;-68
2020/12/23 07:02:42;;;;;;;;;;;;;;;4.66;100.00;100815.91;5051957;28;20397;-68
2020/12/23 07:05:08;;;;;;;;;;;;;;;4.62;100.00;100817.03;5051556;28;20302;-68
2020/12/23 07:07:34;;;;;;;;;;;;;;;4.61;100.00;100823.34;5051469;28;20362;-68
2020/12/23 07:10:05;;;;;;;;;;;;;;;4.60;100.00;100816.25;5050984;28;19949;-68
2020/12/23 07:12:32;;;;;;;;;;;;;;;4.61;100.00;100808.09;5052110;28;19931;-68
2020/12/23 07:15:08;;;;;;;;;;;;;;;4.62;100.00;100814.34;5051225;28;20011;-68
2020/12/23 07:17:35;;;;;;;;;;;;;;;4.63;100.00;100824.16;5051365;28;19924;-67
2020/12/23 07:20:02;;;;;;;;;;;;;;;4.63;100.00;100829.53;5051123;28;20378;-68
2020/12/23 07:22:28;;;;;;;;;;;;;;;4.63;100.00;100824.16;5051007;28;20015;-67
2020/12/23 07:24:55;;;;;;;;;;;;;;;4.59;100.00;100836.88;5051313;28;19925;-68
2020/12/23 07:27:24;;;;;;;;;;;;;;;4.57;100.00;100838.81;5050583;28;20357;-68
2020/12/23 07:29:54;;;;;;;;;;;;;;;4.55;100.00;100835.31;5051198;28;19925;-68
2020/12/23 07:32:22;;;;;;;;;;;;;;;4.55;100.00;100829.09;5051294;28;20671;-68
2020/12/23 07:34:49;;;;;;;;;;;;;;;4.54;100.00;100833.56;5050716;28;20380;-67
2020/12/23 07:37:15;;;;;;;;;;;;;;;4.55;100.00;100839.84;5030148;28;20020;-68
2020/12/23 07:39:41;;;;;;;;;;;;;;;4.58;100.00;100840.50;5042780;28;20442;-68
2020/12/23 07:42:07;;;;;;;;;;;;;;;4.59;100.00;100836.88;5051200;28;20046;-68
2020/12/23 07:44:36;;;;;;;;;;;;;;;4.63;100.00;100838.44;5043545;28;19979;-67
2020/12/23 07:47:04;;;;;;;;;;;;;;;4.65;100.00;100841.94;5044977;28;19925;-68
2020/12/23 07:49:30;;;;;;;;;;;;;;;4.68;100.00;100835.53;5051402;28;20007;-68
2020/12/23 07:51:56;;;;;;;;;;;;;;;4.73;100.00;100832.56;5050804;28;19924;-68
2020/12/23 07:54:21;;;;;;;;;;;;;;;4.73;100.00;100836.16;5051234;28;20465;-68
2020/12/23 07:56:47;;;;;;;;;;;;;;;4.78;100.00;100830.50;5050246;28;19931;-68
2020/12/23 07:59:22;;;;;;;;;;;;;;;4.80;100.00;100847.44;5050975;28;19929;-68
2020/12/23 08:01:48;;;;;;;;;;;;;;;4.83;100.00;100842.72;5050450;28;20075;-68
2020/12/23 08:04:15;;;;;;;;;;;;;;;4.85;100.00;100842.63;5050815;28;20657;-69
2020/12/23 08:06:41;;;;;;;;;;;;;;;4.86;100.00;100833.63;5050018;28;19952;-68
2020/12/23 08:09:09;;;;;;;;;;;;;;;4.94;100.00;100842.13;5050967;28;19975;-68
2020/12/23 08:11:35;;;;;;;;;;;;;;;5.00;100.00;100836.41;5038280;28;19983;-68
2020/12/23 08:14:01;;;;;;;;;;;;;;;5.07;100.00;100847.69;5044915;28;20512;-68
2020/12/23 08:16:27;;;;;;;;;;;;;;;5.14;100.00;100842.84;5049593;28;20031;-69
2020/12/23 08:18:53;;;;;;;;;;;;;;;5.16;100.00;100843.63;5047093;28;20302;-68
2020/12/23 08:21:20;;;;;;;;;;;;;;;5.18;100.00;100831.84;5050197;28;19928;-68
2020/12/23 08:23:46;;;;;;;;;;;;;;;5.24;100.00;100841.38;5034063;28;20344;-68
2020/12/23 08:26:13;;;;;;;;;;;;;;;5.27;100.00;100849.25;5039967;28;19925;-68
2020/12/23 08:28:39;;;;;;;;;;;;;;;5.25;100.00;100859.28;5045524;28;20019;-68
2020/12/23 08:31:06;;;;;;;;;;;;;;;5.31;100.00;100848.13;5045333;28;20404;-68
2020/12/23 08:33:33;;;;;;;;;;;;;;;5.40;100.00;100853.94;5030965;28;19931;-68
2020/12/23 08:36:00;;;;;;;;;;;;;;;5.49;100.00;100848.91;5036266;28;19925;-68
2020/12/23 08:38:27;;;;;;;;;;;;;;;5.58;100.00;100841.25;5050464;28;19925;-68
2020/12/23 08:40:54;;;;;;;;;;;;;;;5.70;100.00;100852.19;5050168;28;19931;-68
2020/12/23 08:43:20;;;;;;;;;;;;;;;5.82;100.00;100855.09;5050392;28;20101;-68
2020/12/23 08:45:46;;;;;;;;;;;;;;;5.94;100.00;100850.81;5048229;28;19924;-68
2020/12/23 08:48:17;;;;;;;;;;;;;;;5.98;100.00;100842.47;5037740;28;19926;-68
2020/12/23 08:50:43;;;;;;;;;;;;;;;6.01;100.00;100841.41;5048135;28;19929;-69
2020/12/23 08:53:09;;;;;;;;;;;;;;;6.02;100.00;100840.47;5054183;28;19964;-69
2020/12/23 08:55:38;;;;;;;;;;;;;;;6.11;100.00;100836.34;5051134;28;19924;-68
2020/12/23 08:58:07;;;;;;;;;;;;;;;6.00;100.00;100820.84;5053576;28;19953;-68
2020/12/23 09:00:33;;;;;;;;;;;;;;;6.04;100.00;100822.38;5053629;28;19964;-68
2020/12/23 09:02:59;;;;;;;;;;;;;;;6.12;100.00;100825.47;5053705;28;19932;-68
2020/12/23 09:05:27;;;;;;;;;;;;;;;6.16;100.00;100820.75;5053489;28;20455;-68
2020/12/23 09:08:11;;;;;;;;;;;;;;;6.15;100.00;100801.03;5052336;28;20354;-68
2020/12/23 09:10:38;;;;;;;;;;;;;;;6.15;100.00;100819.03;5053498;28;20024;-67
2020/12/23 09:13:08;;;;;;;;;;;;;;;6.21;100.00;100807.84;5053529;28;20057;-68
2020/12/23 09:15:33;;;;;;;;;;;;;;;6.22;100.00;100796.13;5053094;28;19975;-69
2020/12/23 09:18:08;;;;;;;;;;;;;;;6.27;100.00;100803.94;5053488;28;19932;-68
2020/12/23 09:20:35;;;;;;;;;;;;;;;6.41;100.00;100805.75;5046815;28;20028;-68
2020/12/23 09:23:02;;;;;;;;;;;;;;;6.38;100.00;100808.66;5040268;28;19925;-68
2020/12/23 09:25:30;;;;;;;;;;;;;;;6.41;100.00;100813.84;5040455;28;20011;-68
2020/12/23 09:28:04;;;;;;;;;;;;;;;6.40;100.00;100807.59;5052940;28;20016;-68
2020/12/23 09:30:30;;;;;;;;;;;;;;;6.37;100.00;100807.78;5052327;28;20011;-68
2020/12/23 09:32:56;;;;;;;;;;;;;;;6.30;100.00;100806.44;5052034;28;19971;-69
2020/12/23 09:35:24;;;;;;;;;;;;;;;6.36;100.00;100801.53;5039630;28;20023;-69
2020/12/23 09:37:50;;;;;;;;;;;;;;;6.40;100.00;100795.94;5038175;28;20390;-68
2020/12/23 09:40:16;;;;;;;;;;;;;;;6.45;100.00;100791.13;5045038;28;20019;-68
2020/12/23 09:42:42;;;;;;;;;;;;;;;6.46;100.00;100777.53;5053393;28;19931;-66
2020/12/23 09:45:09;;;;;;;;;;;;;;;6.55;100.00;100773.41;5052633;28;19924;-68
2020/12/23 09:47:41;;;;;;;;;;;;;;;6.54;100.00;100766.25;5052800;28;19929;-68
2020/12/23 09:50:07;;;;;;;;;;;;;;;6.42;100.00;100770.59;5052377;28;19932;-67
2020/12/23 09:52:32;;;;;;;;;;;;;;;6.51;100.00;100767.31;5052677;28;19925;-68
2020/12/23 09:54:58;;;;;;;;;;;;;;;6.58;100.00;100761.56;5052781;28;19925;-68
2020/12/23 09:57:24;;;;;;;;;;;;;;;6.58;100.00;100757.00;5052112;28;20378;-68
2020/12/23 09:59:50;;;;;;;;;;;;;;;6.61;100.00;100755.94;5051862;28;19929;-68
2020/12/23 10:02:16;;;;;;;;;;;;;;;6.58;100.00;100750.75;5050727;28;19925;-67
2020/12/23 10:04:42;;;;;;;;;;;;;;;6.64;100.00;100755.75;5045442;28;19929;-67
2020/12/23 10:07:09;;;;;;;;;;;;;;;6.74;100.00;100756.03;5035460;28;19925;-68
2020/12/23 10:09:35;;;;;;;;;;;;;;;6.74;100.00;100751.50;5041226;28;19929;-67
2020/12/23 10:12:01;;;;;;;;;;;;;;;6.74;100.00;100753.34;5048463;28;19932;-68
2020/12/23 10:14:27;;;;;;;;;;;;;;;6.74;100.00;100751.50;5042928;28;19925;-67
2020/12/23 10:16:53;;;;;;;;;;;;;;;6.64;100.00;100745.84;5050602;28;19938;-67
2020/12/23 10:19:19;;;;;;;;;;;;;;;6.60;100.00;100741.59;5051723;28;19925;-67
2020/12/23 10:21:45;;;;;;;;;;;;;;;6.57;100.00;100741.78;5052343;28;20016;-67
2020/12/23 10:24:11;;;;;;;;;;;;;;;6.50;100.00;100743.16;5051363;28;20339;-69
2020/12/23 10:26:37;;;;;;;;;;;;;;;6.43;100.00;100739.13;5040068;28;19929;-69
2020/12/23 10:29:02;;;;;;;;;;;;;;;6.47;100.00;100737.97;5051638;28;19979;-69
2020/12/23 10:31:28;;;;;;;;;;;;;;;6.47;100.00;100733.44;5051067;28;19971;-70
2020/12/23 10:33:54;;;;;;;;;;;;;;;6.40;100.00;100726.69;5051970;28;19932;-67
2020/12/23 10:36:20;;;;;;;;;;;;;;;6.47;100.00;100722.63;5049763;28;19924;-67
2020/12/23 10:38:46;;;;;;;;;;;;;;;6.51;100.00;100729.56;5051783;28;20023;-67
2020/12/23 10:41:17;;;;;;;;;;;;;;;6.58;100.00;100721.09;5051355;28;19929;-67
2020/12/23 10:43:42;;;;;;;;;;;;;;;6.59;100.00;100731.78;5051881;28;19931;-67
2020/12/23 10:46:08;;;;;;;;;;;;;;;6.57;100.00;100730.13;5050706;28;19925;-67
2020/12/23 10:48:34;;;;;;;;;;;;;;;6.61;100.00;100728.97;5044585;28;20382;-68
2020/12/23 10:51:03;;;;;;;;;;;;;;;6.52;100.00;100734.00;5031526;28;19932;-69
2020/12/23 10:53:29;;;;;;;;;;;;;;;6.55;100.00;100727.53;5040626;28;20306;-69
2020/12/23 10:55:55;;;;;;;;;;;;;;;6.51;100.00;100726.00;5042643;28;19931;-67
2020/12/23 10:58:21;;;;;;;;;;;;;;;6.54;100.00;100723.97;5041108;28;20366;-67
2020/12/23 11:00:47;;;;;;;;;;;;;;;6.58;100.00;100721.09;5051648;28;19954;-67
2020/12/23 11:03:12;;;;;;;;;;;;;;;6.57;100.00;100711.25;5046973;28;20353;-67
2020/12/23 11:05:38;;;;;;;;;;;;;;;6.52;100.00;100711.53;5044015;28;19925;-67
2020/12/23 11:08:04;;;;;;;;;;;;;;;6.63;100.00;100695.53;5050641;28;19925;-67
2020/12/23 11:10:31;;;;;;;;;;;;;;;6.65;100.00;100687.34;5034730;28;20374;-69
2020/12/23 11:12:56;;;;;;;;;;;;;;;6.63;100.00;100684.75;5051245;28;19987;-67
2020/12/23 11:15:22;;;;;;;;;;;;;;;6.65;100.00;100681.94;5050842;28;19959;-69
2020/12/23 11:17:48;;;;;;;;;;;;;;;6.75;100.00;100680.38;5050543;28;19928;-68
2020/12/23 11:20:14;;;;;;;;;;;;;;;6.82;100.00;100675.44;5050965;28;19929;-67
2020/12/23 11:22:39;;;;;;;;;;;;;;;6.98;100.00;100669.91;5051276;28;20394;-67
2020/12/23 11:25:05;;;;;;;;;;;;;;;6.95;100.00;100665.56;5050820;28;19948;-68
2020/12/23 11:27:32;;;;;;;;;;;;;;;7.01;100.00;100669.69;5050646;28;20109;-68
2020/12/23 11:29:58;;;;;;;;;;;;;;;6.98;100.00;100676.16;5051211;28;20016;-67
2020/12/23 11:32:24;;;;;;;;;;;;;;;6.97;100.00;100663.63;5050808;28;19924;-67
2020/12/23 11:34:49;;;;;;;;;;;;;;;6.92;100.00;100654.09;5051201;28;19932;-67
2020/12/23 11:37:15;;;;;;;;;;;;;;;6.86;100.00;100647.28;5050377;28;19929;-67
2020/12/23 11:39:41;;;;;;;;;;;;;;;6.81;100.00;100644.03;5049964;28;19932;-68
2020/12/23 11:42:07;;;;;;;;;;;;;;;6.67;100.00;100645.81;5050587;28;19928;-68
2020/12/23 11:44:34;;;;;;;;;;;;;;;6.67;100.00;100642.28;5050424;28;20040;-69
2020/12/23 11:46:59;;;;;;;;;;;;;;;6.75;100.00;100642.63;5050010;28;19970;-67
2020/12/23 11:49:25;;;;;;;;;;;;;;;6.82;100.00;100635.84;5051016;28;19932;-69
2020/12/23 11:51:52;;;;;;;;;;;;;;;6.82;100.00;100627.75;5050732;28;19925;-69
2020/12/23 11:54:18;;;;;;;;;;;;;;;6.73;100.00;100636.44;5050288;28;19928;-69
2020/12/23 11:56:44;;;;;;;;;;;;;;;6.75;100.00;100633.63;5050576;28;20070;-69
2020/12/23 11:59:10;;;;;;;;;;;;;;;6.70;100.00;100633.97;5050220;28;19928;-69
2020/12/23 12:01:37;;;;;;;;;;;;;;;6.80;100.00;100635.09;5050610;28;20399;-68
2020/12/23 12:04:03;;;;;;;;;;;;;;;6.73;100.00;100631.06;5050330;28;20008;-68
2020/12/23 12:06:28;;;;;;;;;;;;;;;6.79;100.00;100627.94;5050266;28;19972;-70
2020/12/23 12:08:54;;;;;;;;;;;;;;;6.78;100.00;100622.66;5048855;28;19925;-69
2020/12/23 12:11:20;;;;;;;;;;;;;;;6.80;100.00;100621.59;5050526;28;19948;-69
2020/12/23 12:13:46;;;;;;;;;;;;;;;6.90;100.00;100620.97;5045804;28;19955;-69
2020/12/23 12:16:13;;;;;;;;;;;;;;;6.90;100.00;100621.84;5048839;28;19996;-69
2020/12/23 12:18:40;;;;;;;;;;;;;;;6.97;100.00;100616.88;5049629;28;19976;-69
2020/12/23 12:21:06;;;;;;;;;;;;;;;6.92;100.00;100614.50;5050599;28;20374;-69
2020/12/23 12:23:32;;;;;;;;;;;;;;;7.02;100.00;100603.94;5051102;28;19979;-69
2020/12/23 12:25:58;;;;;;;;;;;;;;;7.07;100.00;100601.81;5053896;28;19935;-69
2020/12/23 12:28:23;;;;;;;;;;;;;;;7.02;100.00;100601.25;5054349;28;19932;-69
2020/12/23 12:30:49;;;;;;;;;;;;;;;6.93;100.00;100591.06;5053273;28;19932;-68
2020/12/23 12:33:15;;;;;;;;;;;;;;;6.83;100.00;100590.84;5043962;28;20046;-68